createdAt,value
2018-12-02T00:00:34.223Z,5.20
2018-12-02T00:03:04.608Z,4.87
2018-12-02T00:05:32.714Z,4.63
2018-12-02T00:08:00.911Z,4.83
2018-12-02T00:10:30.063Z,5.10
2018-12-02T00:12:58.188Z,4.70
2018-12-02T00:15:28.390Z,4.67
2018-12-02T00:18:11.696Z,4.97
2018-12-02T00:20:39.996Z,4.50
2018-12-02T00:23:10.370Z,3.43
2018-12-02T00:25:39.582Z,4.70
2018-12-02T00:28:14.706Z,4.33
2018-12-02T00:30:43.910Z,3.93
2018-12-02T00:33:12.826Z,3.77
2018-12-02T00:35:46.301Z,3.77
2018-12-02T00:38:16.421Z,4.23
2018-12-02T00:40:44.543Z,3.80
2018-12-02T00:43:18.719Z,3.40
2018-12-02T00:45:53.106Z,4.57
2018-12-02T00:48:37.512Z,3.47
2018-12-02T00:51:15.550Z,4.03
2018-12-02T00:53:43.671Z,3.63
2018-12-02T00:56:19.407Z,3.93
2018-12-02T00:58:47.619Z,4.00
2018-12-02T01:01:16.866Z,3.80
2018-12-02T01:03:46.063Z,3.67
2018-12-02T01:06:16.207Z,4.47
2018-12-02T01:08:45.394Z,5.10
2018-12-02T01:11:13.618Z,4.53
2018-12-02T01:13:42.767Z,4.97
2018-12-02T01:16:15.466Z,4.93
2018-12-02T01:18:43.602Z,4.97
2018-12-02T01:21:12.424Z,5.80
2018-12-02T01:23:43.875Z,5.30
2018-12-02T01:26:12.807Z,5.60
2018-12-02T01:28:50.939Z,4.73
2018-12-02T01:31:23.034Z,5.50
2018-12-02T01:33:55.818Z,5.00
2018-12-02T01:36:34.088Z,5.30
2018-12-02T01:39:02.179Z,5.27
2018-12-02T01:41:33.831Z,4.80
2018-12-02T01:44:03.974Z,4.63
2018-12-02T01:46:33.187Z,4.60
2018-12-02T01:49:04.738Z,4.67
2018-12-02T01:51:32.883Z,4.43
2018-12-02T01:54:02.087Z,4.73
2018-12-02T01:56:33.570Z,4.67
2018-12-02T01:59:01.810Z,3.93
2018-12-02T02:01:30.011Z,4.43
2018-12-02T02:04:03.715Z,4.37
2018-12-02T02:06:32.987Z,4.30
2018-12-02T02:09:03.131Z,4.60
2018-12-02T02:11:31.306Z,4.43
2018-12-02T02:13:59.446Z,5.23
2018-12-02T02:16:28.683Z,4.20
2018-12-02T02:18:56.827Z,4.20
2018-12-02T02:21:25.027Z,5.57
2018-12-02T02:23:55.273Z,4.83
2018-12-02T02:26:23.450Z,4.70
2018-12-02T02:28:52.622Z,4.47
2018-12-02T02:31:24.346Z,5.40
2018-12-02T02:33:52.467Z,5.30
2018-12-02T02:36:21.587Z,5.27
2018-12-02T02:38:49.832Z,5.27
2018-12-02T02:41:19.103Z,5.37
2018-12-02T02:43:47.255Z,5.50
2018-12-02T02:46:21.202Z,6.07
2018-12-02T02:48:49.335Z,5.43
2018-12-02T02:51:18.563Z,6.00
2018-12-02T02:53:46.726Z,5.60
2018-12-02T02:56:16.051Z,5.63
2018-12-02T02:58:51.214Z,6.27
2018-12-02T03:01:19.519Z,6.17
2018-12-02T03:03:47.975Z,5.60
2018-12-02T03:06:16.480Z,6.63
2018-12-02T03:08:56.627Z,5.60
2018-12-02T03:11:24.804Z,5.90
2018-12-02T03:13:53.139Z,5.20
2018-12-02T03:16:30.876Z,6.10
2018-12-02T03:18:59.251Z,5.57
2018-12-02T03:21:28.430Z,5.30
2018-12-02T03:23:56.706Z,5.50
2018-12-02T03:26:28.090Z,5.90
2018-12-02T03:28:56.304Z,5.20
2018-12-02T03:31:28.856Z,5.00
2018-12-02T03:33:57.034Z,4.67
2018-12-02T03:36:31.312Z,4.50
2018-12-02T03:39:13.448Z,4.53
2018-12-02T03:41:45.165Z,4.83
2018-12-02T03:44:13.403Z,5.40
2018-12-02T03:46:41.551Z,4.87
2018-12-02T03:49:09.730Z,4.50
2018-12-02T03:51:37.934Z,5.00
2018-12-02T03:54:06.122Z,5.27
2018-12-02T03:56:34.288Z,5.50
2018-12-02T03:59:15.740Z,5.03
2018-12-02T04:01:45.962Z,5.00
2018-12-02T04:04:21.308Z,5.70
2018-12-02T04:06:50.511Z,5.53
2018-12-02T04:09:24.892Z,4.63
2018-12-02T04:11:57.128Z,5.77
2018-12-02T04:14:45.963Z,5.63
2018-12-02T04:17:17.402Z,6.27
2018-12-02T04:19:50.067Z,5.60
2018-12-02T04:22:24.431Z,5.73
2018-12-02T04:24:53.606Z,5.17
2018-12-02T04:27:21.790Z,6.20
2018-12-02T04:29:51.047Z,6.97
2018-12-02T04:32:22.835Z,6.20
2018-12-02T04:34:50.998Z,6.33
2018-12-02T04:37:20.389Z,7.00
2018-12-02T04:39:51.867Z,6.60
2018-12-02T04:42:20.083Z,6.30
2018-12-02T04:44:48.422Z,7.20
2018-12-02T04:47:16.703Z,6.33
2018-12-02T04:49:52.216Z,6.60
2018-12-02T04:52:21.351Z,8.10
2018-12-02T04:54:49.508Z,6.60
2018-12-02T04:57:18.792Z,7.30
2018-12-02T04:59:47.376Z,7.23
2018-12-02T05:02:15.154Z,6.90
2018-12-02T05:04:51.077Z,7.13
2018-12-02T05:07:19.384Z,6.80
2018-12-02T05:09:47.544Z,7.37
2018-12-02T05:12:16.772Z,6.57
2018-12-02T05:14:49.517Z,6.80
2018-12-02T05:17:17.719Z,6.70
2018-12-02T05:19:48.006Z,7.37
2018-12-02T05:22:17.239Z,7.17
2018-12-02T05:24:46.410Z,6.57
2018-12-02T05:27:17.931Z,7.33
2018-12-02T05:32:42.151Z,7.80
2018-12-02T05:35:11.296Z,7.07
2018-12-02T05:37:39.436Z,7.20
2018-12-02T05:40:16.459Z,9.00
2018-12-02T05:42:44.579Z,7.93
2018-12-02T05:45:14.335Z,8.40
2018-12-02T05:47:42.514Z,8.20
2018-12-02T05:50:21.354Z,7.97
2018-12-02T05:52:52.768Z,7.57
2018-12-02T05:55:23.058Z,8.20
2018-12-02T05:57:51.170Z,7.80
2018-12-02T06:00:20.431Z,8.50
2018-12-02T06:02:48.544Z,8.57
2018-12-02T06:05:16.649Z,8.33
2018-12-02T06:07:44.790Z,8.90
2018-12-02T06:10:14.714Z,8.80
2018-12-02T06:12:42.898Z,9.50
2018-12-02T06:15:12.838Z,9.83
2018-12-02T06:17:41.031Z,10.27
2018-12-02T06:20:12.334Z,10.10
2018-12-02T06:22:40.457Z,10.40
2018-12-02T06:25:09.307Z,10.40
2018-12-02T06:27:38.050Z,11.20
2018-12-02T06:30:28.465Z,11.03
2018-12-02T06:33:01.722Z,11.07
2018-12-02T06:35:29.843Z,9.60
2018-12-02T06:37:59.297Z,10.10
2018-12-02T06:40:28.258Z,10.37
2018-12-02T06:42:56.691Z,10.10
2018-12-02T06:45:24.814Z,10.00
2018-12-02T06:47:53.019Z,9.90
2018-12-02T06:50:22.808Z,9.50
2018-12-02T06:52:51.139Z,9.40
2018-12-02T06:55:23.950Z,9.83
2018-12-02T06:57:54.976Z,10.77
2018-12-02T07:00:37.290Z,10.63
2018-12-02T07:03:28.758Z,11.03
2018-12-02T07:05:56.900Z,9.97
2018-12-02T07:08:25.014Z,10.50
2018-12-02T07:10:53.127Z,10.60
2018-12-02T07:13:21.339Z,10.73
2018-12-02T07:15:49.466Z,11.50
2018-12-02T07:18:19.719Z,12.20
2018-12-02T07:20:47.834Z,11.37
2018-12-02T07:23:15.971Z,10.63
2018-12-02T07:25:44.102Z,10.67
2018-12-02T07:28:12.775Z,11.00
2018-12-02T07:30:40.898Z,11.47
2018-12-02T07:33:09.009Z,9.73
2018-12-02T07:35:37.166Z,8.90
2018-12-02T07:38:13.534Z,10.67
2018-12-02T07:40:42.148Z,9.93
2018-12-02T07:43:11.446Z,9.57
2018-12-02T07:45:39.584Z,10.50
2018-12-02T07:48:07.721Z,10.20
2018-12-02T07:50:35.859Z,9.57
2018-12-02T07:53:03.965Z,9.00
2018-12-02T07:55:32.096Z,8.33
2018-12-02T07:58:00.224Z,8.40
2018-12-02T08:00:28.375Z,7.43
2018-12-02T08:02:56.491Z,7.47
2018-12-02T08:05:24.610Z,7.33
2018-12-02T08:07:52.873Z,8.40
2018-12-02T08:10:21.009Z,8.20
2018-12-02T08:12:49.138Z,6.77
2018-12-02T08:15:19.155Z,7.77
2018-12-02T08:17:47.290Z,7.60
2018-12-02T08:20:17.143Z,7.47
2018-12-02T08:22:51.107Z,7.40
2018-12-02T08:25:17.986Z,8.57
2018-12-02T08:27:46.200Z,7.70
2018-12-02T08:30:23.446Z,8.43
2018-12-02T08:32:51.645Z,7.30
2018-12-02T08:35:21.047Z,9.17
2018-12-02T08:37:51.742Z,8.13
2018-12-02T08:40:19.895Z,7.70
2018-12-02T08:42:48.000Z,8.90
2018-12-02T08:45:17.086Z,7.47
2018-12-02T08:47:45.369Z,7.40
2018-12-02T08:50:17.425Z,7.23
2018-12-02T08:52:46.435Z,8.27
2018-12-02T08:55:15.722Z,7.60
2018-12-02T08:57:44.011Z,8.70
2018-12-02T09:00:14.327Z,7.13
2018-12-02T09:02:43.230Z,8.53
2018-12-02T09:05:12.526Z,7.60
2018-12-02T09:07:40.744Z,7.57
2018-12-02T09:10:15.364Z,8.50
2018-12-02T09:12:43.472Z,9.07
2018-12-02T09:15:11.569Z,7.80
2018-12-02T09:17:39.727Z,9.10
2018-12-02T09:20:15.270Z,8.37
2018-12-02T09:22:43.383Z,8.10
2018-12-02T09:25:11.503Z,8.30
2018-12-02T09:27:39.661Z,9.20
2018-12-02T09:30:11.230Z,10.23
2018-12-02T09:32:39.356Z,9.47
2018-12-02T09:35:08.449Z,9.03
2018-12-02T09:37:36.607Z,9.93
2018-12-02T09:40:07.934Z,11.80
2018-12-02T09:42:36.045Z,10.43
2018-12-02T09:45:04.407Z,9.30
2018-12-02T09:47:32.531Z,10.57
2018-12-02T09:50:00.631Z,15.37
2018-12-02T09:52:28.766Z,17.27
2018-12-02T09:54:56.896Z,37.70
2018-12-02T09:57:25.018Z,25.10
2018-12-02T09:59:53.135Z,20.03
2018-12-02T10:02:21.261Z,42.40
2018-12-02T10:04:49.375Z,11.87
2018-12-02T10:07:17.484Z,11.83
2018-12-02T10:09:45.661Z,7.60
2018-12-02T10:12:13.881Z,9.10
2018-12-02T10:14:41.990Z,7.10
2018-12-02T10:17:10.095Z,7.40
2018-12-02T10:19:38.182Z,9.50
2018-12-02T10:22:06.295Z,10.40
2018-12-02T10:24:34.394Z,8.70
2018-12-02T10:27:02.510Z,10.20
2018-12-02T10:29:30.596Z,7.90
2018-12-02T10:31:58.678Z,6.67
2018-12-02T10:34:26.770Z,6.63
2018-12-02T10:36:54.882Z,4.87
2018-12-02T10:39:22.975Z,5.67
2018-12-02T10:41:51.079Z,3.83
2018-12-02T10:44:23.925Z,2.70
2018-12-02T10:46:52.111Z,2.27
2018-12-02T10:49:20.210Z,2.50
2018-12-02T10:51:48.287Z,2.27
2018-12-02T10:54:16.414Z,1.93
2018-12-02T10:56:44.501Z,1.70
2018-12-02T10:59:12.610Z,1.80
2018-12-02T11:01:43.258Z,2.60
2018-12-02T11:04:11.342Z,5.23
2018-12-02T11:06:39.425Z,6.90
2018-12-02T11:09:09.890Z,8.60
2018-12-02T11:11:38.022Z,5.80
2018-12-02T11:14:06.410Z,5.23
2018-12-02T11:16:34.554Z,5.10
2018-12-02T11:19:02.642Z,3.40
2018-12-02T11:21:30.755Z,4.30
2018-12-02T11:23:58.854Z,5.07
2018-12-02T11:26:26.942Z,5.80
2018-12-02T11:28:55.034Z,2.30
2018-12-02T11:31:23.122Z,2.10
2018-12-02T11:33:51.198Z,2.03
2018-12-02T11:36:19.266Z,1.50
2018-12-02T11:38:47.346Z,1.13
2018-12-02T11:41:15.426Z,1.20
2018-12-02T11:43:43.498Z,1.10
2018-12-02T11:46:11.614Z,1.20
2018-12-02T11:48:39.698Z,0.80
2018-12-02T11:51:07.775Z,1.00
2018-12-02T11:53:35.874Z,1.50
2018-12-02T11:56:03.959Z,2.00
2018-12-02T11:58:32.042Z,2.70
2018-12-02T12:01:00.114Z,3.30
2018-12-02T12:03:28.194Z,3.77
2018-12-02T12:05:56.278Z,4.77
2018-12-02T12:08:24.362Z,4.60
2018-12-02T12:10:52.447Z,5.80
2018-12-02T12:13:20.526Z,4.13
2018-12-02T12:15:48.595Z,4.73
2018-12-02T12:18:16.690Z,8.70
2018-12-02T12:20:44.759Z,8.00
2018-12-02T12:23:18.563Z,13.30
2018-12-02T12:25:46.723Z,5.47
2018-12-02T12:28:14.806Z,4.90
2018-12-02T12:30:42.898Z,5.57
2018-12-02T12:33:11.495Z,4.10
2018-12-02T12:35:47.079Z,3.00
2018-12-02T12:38:15.162Z,3.20
2018-12-02T12:40:43.754Z,3.10
2018-12-02T12:43:33.742Z,2.40
2018-12-02T12:46:02.446Z,2.50
2018-12-02T12:48:30.516Z,2.50
2018-12-02T12:50:58.600Z,2.67
2018-12-02T12:53:26.675Z,2.70
2018-12-02T12:55:54.764Z,3.23
2018-12-02T12:58:22.859Z,3.27
2018-12-02T13:00:50.966Z,4.13
2018-12-02T13:03:19.042Z,3.50
2018-12-02T13:05:47.278Z,3.37
2018-12-02T13:08:15.859Z,2.50
2018-12-02T13:10:43.948Z,2.10
2018-12-02T13:13:12.570Z,1.87
2018-12-02T13:15:40.660Z,1.90
2018-12-02T13:18:09.812Z,1.67
2018-12-02T13:20:42.188Z,2.20
2018-12-02T13:23:10.255Z,2.80
2018-12-02T13:25:38.339Z,2.37
2018-12-02T13:28:07.118Z,2.10
2018-12-02T13:30:35.239Z,1.40
2018-12-02T13:33:03.314Z,1.50
2018-12-02T13:35:31.394Z,2.50
2018-12-02T13:37:59.563Z,2.33
2018-12-02T13:40:27.639Z,3.40
2018-12-02T13:42:59.835Z,4.03
2018-12-02T13:45:29.055Z,9.27
2018-12-02T13:47:57.138Z,20.20
2018-12-02T13:50:25.227Z,27.60
2018-12-02T13:52:55.094Z,25.27
2018-12-02T13:55:24.526Z,21.40
2018-12-02T13:57:52.800Z,4.20
2018-12-02T14:00:23.824Z,5.93
2018-12-02T14:02:54.356Z,6.30
2018-12-02T14:05:22.450Z,18.40
2018-12-02T14:07:50.531Z,35.90
2018-12-02T14:10:18.622Z,45.73
2018-12-02T14:12:50.125Z,36.73
2018-12-02T14:15:25.774Z,39.00
2018-12-02T14:18:03.458Z,37.43
2018-12-02T14:20:31.551Z,48.17
2018-12-02T14:22:59.627Z,34.70
2018-12-02T14:25:27.723Z,44.30
2018-12-02T14:27:55.806Z,48.50
2018-12-02T14:30:23.903Z,45.23
2018-12-02T14:32:51.978Z,47.03
2018-12-02T14:35:20.070Z,48.97
2018-12-02T14:37:48.153Z,41.00
2018-12-02T14:40:16.256Z,56.17
2018-12-02T14:42:44.842Z,63.53
2018-12-02T14:45:15.787Z,47.40
2018-12-02T14:47:43.942Z,38.60
2018-12-02T14:50:14.751Z,43.47
2018-12-02T14:52:43.734Z,43.07
2018-12-02T14:55:14.390Z,11.20
2018-12-02T14:57:42.483Z,15.10
2018-12-02T15:00:13.493Z,26.23
2018-12-02T15:02:41.579Z,32.27
2018-12-02T15:05:10.810Z,33.43
2018-12-02T15:07:38.898Z,40.87
2018-12-02T15:10:13.375Z,50.10
2018-12-02T15:12:41.521Z,64.50
2018-12-02T15:15:12.182Z,55.07
2018-12-02T15:17:40.410Z,44.50
2018-12-02T15:20:12.565Z,50.23
2018-12-02T15:22:40.686Z,48.17
2018-12-02T15:25:11.339Z,31.77
2018-12-02T15:27:39.438Z,29.77
2018-12-02T15:30:14.814Z,30.23
2018-12-02T15:32:45.365Z,45.03
2018-12-02T15:35:13.454Z,45.00
2018-12-02T15:37:42.654Z,62.27
2018-12-02T15:40:13.874Z,52.50
2018-12-02T15:42:45.580Z,46.70
2018-12-02T15:45:14.114Z,45.80
2018-12-02T15:47:42.223Z,41.67
2018-12-02T15:50:15.878Z,84.87
2018-12-02T15:52:44.118Z,106.90
2018-12-02T15:55:15.599Z,66.10
2018-12-02T15:57:43.707Z,103.33
2018-12-02T16:00:18.215Z,114.00
2018-12-02T16:02:46.322Z,113.70
2018-12-02T16:05:14.431Z,85.37
2018-12-02T16:07:42.555Z,89.43
2018-12-02T16:10:12.712Z,92.83
2018-12-02T16:12:41.950Z,131.97
2018-12-02T16:15:12.462Z,138.00
2018-12-02T16:17:40.598Z,112.83
2018-12-02T16:20:10.455Z,150.90
2018-12-02T16:22:38.557Z,157.17
2018-12-02T16:25:07.924Z,174.83
2018-12-02T16:27:36.033Z,173.60
2018-12-02T16:30:10.003Z,175.67
2018-12-02T16:32:38.107Z,145.13
2018-12-02T16:35:07.785Z,145.03
2018-12-02T16:37:35.889Z,117.70
2018-12-02T16:40:04.640Z,128.13
2018-12-02T16:42:32.725Z,103.17
2018-12-02T16:45:00.809Z,59.30
2018-12-02T16:47:28.895Z,55.70
2018-12-02T16:49:56.978Z,35.40
2018-12-02T16:52:25.070Z,32.10
2018-12-02T16:54:53.134Z,22.90
2018-12-02T16:57:21.218Z,22.43
2018-12-02T16:59:49.404Z,22.90
2018-12-02T17:02:17.491Z,20.10
2018-12-02T17:04:45.574Z,20.97
2018-12-02T17:07:13.654Z,28.67
2018-12-02T17:09:41.742Z,21.87
2018-12-02T17:12:09.830Z,32.17
2018-12-02T17:14:38.844Z,42.50
2018-12-02T17:17:06.114Z,40.63
2018-12-02T17:19:34.219Z,28.20
2018-12-02T17:22:02.314Z,23.30
2018-12-02T17:24:30.379Z,23.60
2018-12-02T17:26:58.472Z,19.53
2018-12-02T17:29:26.568Z,13.80
2018-12-02T17:32:06.214Z,14.13
2018-12-02T17:34:34.298Z,11.57
2018-12-02T17:37:03.449Z,23.50
2018-12-02T17:39:32.899Z,7.37
2018-12-02T17:42:06.539Z,9.07
2018-12-02T17:44:34.646Z,15.07
2018-12-02T17:47:02.760Z,12.23
2018-12-02T17:49:31.876Z,15.47
2018-12-02T17:51:59.951Z,13.87
2018-12-02T17:54:28.139Z,18.57
2018-12-02T17:56:56.215Z,35.13
2018-12-02T17:59:24.306Z,47.40
2018-12-02T18:01:52.377Z,71.53
2018-12-02T18:04:20.474Z,94.77
2018-12-02T18:06:48.554Z,101.47
2018-12-02T18:09:16.646Z,106.83
2018-12-02T18:11:44.730Z,109.57
2018-12-02T18:14:13.697Z,108.87
2018-12-02T18:16:41.785Z,128.30
2018-12-02T18:19:09.886Z,131.43
2018-12-02T18:21:37.993Z,115.73
2018-12-02T18:24:06.495Z,52.70
2018-12-02T18:26:34.575Z,31.47
2018-12-02T18:29:02.657Z,22.07
2018-12-02T18:31:30.799Z,46.27
2018-12-02T18:33:59.914Z,91.73
2018-12-02T18:36:30.934Z,93.07
2018-12-02T18:38:59.026Z,57.60
2018-12-02T18:41:36.194Z,100.27
2018-12-02T18:44:04.993Z,86.77
2018-12-02T18:46:33.062Z,58.10
2018-12-02T18:49:01.228Z,110.87
2018-12-02T18:51:29.278Z,107.77
2018-12-02T18:53:57.386Z,102.87
2018-12-02T18:56:25.494Z,88.97
2018-12-02T18:58:53.606Z,118.90
2018-12-02T19:01:21.692Z,88.43
2018-12-02T19:03:49.806Z,128.93
2018-12-02T19:06:17.889Z,125.27
2018-12-02T19:08:45.995Z,89.70
2018-12-02T19:11:14.109Z,98.13
2018-12-02T19:13:43.747Z,85.40
2018-12-02T19:16:10.303Z,97.03
2018-12-02T19:18:38.725Z,111.97
2018-12-02T19:21:12.610Z,111.33
2018-12-02T19:23:40.726Z,165.97
2018-12-02T19:26:08.818Z,157.43
2018-12-02T19:28:36.914Z,119.40
2018-12-02T19:31:05.146Z,106.43
2018-12-02T19:33:33.303Z,120.23
2018-12-02T19:36:05.764Z,126.50
2018-12-02T19:38:33.862Z,127.30
2018-12-02T19:41:01.971Z,92.00
2018-12-02T19:43:30.063Z,81.97
2018-12-02T19:45:58.198Z,99.87
2018-12-02T19:48:26.317Z,130.53
2018-12-02T19:50:54.430Z,106.00
2018-12-02T19:53:22.527Z,106.67
2018-12-02T19:55:50.671Z,117.10
2018-12-02T19:58:18.766Z,103.30
2018-12-02T20:00:47.094Z,120.10
2018-12-02T20:03:16.279Z,168.83
2018-12-02T20:05:45.386Z,115.30
2018-12-02T20:08:14.379Z,116.60
2018-12-02T20:10:47.054Z,141.23
2018-12-02T20:13:16.343Z,98.67
2018-12-02T20:15:50.327Z,64.67
2018-12-02T20:18:18.490Z,50.43
2018-12-02T20:20:49.233Z,72.77
2018-12-02T20:23:23.542Z,92.73
2018-12-02T20:25:53.922Z,106.73
2018-12-02T20:28:23.662Z,104.60
2018-12-02T20:30:51.762Z,88.30
2018-12-02T20:33:19.861Z,87.07
2018-12-02T20:35:47.971Z,88.07
2018-12-02T20:38:16.071Z,91.23
2018-12-02T20:40:44.191Z,100.50
2018-12-02T20:43:13.243Z,83.30
2018-12-02T20:45:41.355Z,32.77
2018-12-02T20:48:09.450Z,50.00
2018-12-02T20:50:37.562Z,54.67
2018-12-02T20:53:05.675Z,50.30
2018-12-02T20:55:33.931Z,55.37
2018-12-02T20:58:02.706Z,74.43
2018-12-02T21:00:30.815Z,90.87
2018-12-02T21:03:01.222Z,95.07
2018-12-02T21:05:31.971Z,114.07
2018-12-02T21:08:00.143Z,89.97
2018-12-02T21:10:28.247Z,111.00
2018-12-02T21:12:56.345Z,121.20
2018-12-02T21:15:24.458Z,94.80
2018-12-02T21:17:52.910Z,100.80
2018-12-02T21:20:21.037Z,134.67
2018-12-02T21:22:49.124Z,108.17
2018-12-02T21:25:21.766Z,73.17
2018-12-02T21:27:49.882Z,99.63
2018-12-02T21:30:20.758Z,98.37
2018-12-02T21:32:48.855Z,134.87
2018-12-02T21:35:16.946Z,91.90
2018-12-02T21:37:45.402Z,115.73
2018-12-02T21:40:15.490Z,134.80
2018-12-02T21:42:43.614Z,118.23
2018-12-02T21:45:13.807Z,104.70
2018-12-02T21:47:43.622Z,78.83
2018-12-02T21:50:15.262Z,102.60
2018-12-02T21:52:43.353Z,84.67
2018-12-02T21:55:12.128Z,98.57
2018-12-02T21:57:40.228Z,70.90
2018-12-02T22:00:18.673Z,76.53
2018-12-02T22:02:46.874Z,85.43
2018-12-02T22:05:14.976Z,82.40
2018-12-02T22:07:43.094Z,72.87
2018-12-02T22:10:12.838Z,72.50
2018-12-02T22:12:40.926Z,77.80
2018-12-02T22:15:09.155Z,90.90
2018-12-02T22:17:37.250Z,78.87
2018-12-02T22:20:10.658Z,80.50
2018-12-02T22:22:38.918Z,93.20
2018-12-02T22:25:14.174Z,94.23
2018-12-02T22:27:44.502Z,96.80
2018-12-02T22:30:14.006Z,92.47
2018-12-02T22:32:42.250Z,85.23
2018-12-02T22:35:11.495Z,93.77
2018-12-02T22:37:39.674Z,86.20
2018-12-02T22:40:19.642Z,82.20
2018-12-02T22:42:47.741Z,87.10
2018-12-02T22:45:20.150Z,78.07
2018-12-02T22:47:48.338Z,76.57
2018-12-02T22:50:17.389Z,60.03
2018-12-02T22:52:46.625Z,54.90
2018-12-02T22:55:14.802Z,65.63
2018-12-02T22:57:42.978Z,69.53
2018-12-02T23:00:36.238Z,79.77
2018-12-02T23:03:09.801Z,79.17
2018-12-02T23:05:38.006Z,90.23
2018-12-02T23:08:06.432Z,32.43
2018-12-02T23:10:34.558Z,91.67
2018-12-02T23:13:02.743Z,85.87
2018-12-02T23:15:30.922Z,85.67
2018-12-02T23:17:59.114Z,96.83
2018-12-02T23:20:27.274Z,64.57
2018-12-02T23:22:55.453Z,91.30
2018-12-02T23:25:23.618Z,101.20
2018-12-02T23:27:51.939Z,98.27
2018-12-02T23:30:21.646Z,80.87
2018-12-02T23:32:49.811Z,85.03
2018-12-02T23:35:17.923Z,71.27
2018-12-02T23:37:46.071Z,61.93
2018-12-02T23:40:21.565Z,56.00
2018-12-02T23:42:49.681Z,81.53
2018-12-02T23:45:17.967Z,65.17
2018-12-02T23:47:46.078Z,78.40
2018-12-02T23:50:20.205Z,82.40
2018-12-02T23:52:48.394Z,56.73
2018-12-02T23:55:17.495Z,65.27
2018-12-02T23:57:45.784Z,46.60
